Time;durP1;ratioP1;P1;durP2;ratioP2;P2;SDS_P1;SDS_P2;PMS_P1;PMS_P2;Temp;Humidity;BMP_temperature;BMP_pressure;BME280_temperature;BME280_humidity;BME280_pressure;Samples;Min_cycle;Max_cycle;Signal;HPM_P1;HPM_P2
2022/01/03 00:01:30;;;;;;;;;;;;;;;-8.10;76.16;98551.66;5011960;28;20343;-79
2022/01/03 00:03:56;;;;;;;;;;;;;;;-8.04;76.11;98536.88;5012018;28;19921;-77
2022/01/03 00:06:21;;;;;;;;;;;;;;;-7.95;76.47;98533.16;5012025;28;19921;-77
2022/01/03 00:08:47;;;;;;;;;;;;;;;-7.92;76.57;98529.94;5012785;28;19924;-80
2022/01/03 00:11:12;;;;;;;;;;;;;;;-7.93;75.76;98524.00;5013064;28;20023;-79
2022/01/03 00:13:40;;;;;;;;;;;;;;;-7.92;76.59;98524.91;5012377;28;20028;-78
2022/01/03 00:16:05;;;;;;;;;;;;;;;-7.93;76.79;98524.00;5011252;28;19917;-78
2022/01/03 00:18:30;;;;;;;;;;;;;;;-7.94;76.95;98523.94;5028514;28;19923;-78
2022/01/03 00:20:57;;;;;;;;;;;;;;;-7.87;76.49;98515.06;5012521;28;20277;-78
2022/01/03 00:23:24;;;;;;;;;;;;;;;-7.82;76.95;98511.97;5012205;28;19939;-78
2022/01/03 00:25:50;;;;;;;;;;;;;;;-7.91;75.70;98506.50;4996065;28;19913;-78
2022/01/03 00:28:15;;;;;;;;;;;;;;;-7.99;75.42;98492.66;5012003;28;19968;-78
2022/01/03 00:30:42;;;;;;;;;;;;;;;-8.01;76.33;98486.69;5011878;28;20396;-78
2022/01/03 00:33:07;;;;;;;;;;;;;;;-8.00;76.28;98475.84;5011704;28;20488;-77
2022/01/03 00:35:34;;;;;;;;;;;;;;;-7.92;77.00;98482.13;4995677;28;20012;-77
2022/01/03 00:37:59;;;;;;;;;;;;;;;-7.93;76.70;98473.66;5011703;28;19921;-78
2022/01/03 00:40:25;;;;;;;;;;;;;;;-7.86;76.29;98467.31;5011512;28;20506;-77
2022/01/03 00:42:51;;;;;;;;;;;;;;;-7.94;76.35;98481.16;5011881;28;19971;-77
2022/01/03 00:45:16;;;;;;;;;;;;;;;-7.96;76.76;98477.72;5011543;28;19917;-78
2022/01/03 00:47:42;;;;;;;;;;;;;;;-8.01;76.95;98467.41;5011646;28;19917;-77
2022/01/03 00:50:11;;;;;;;;;;;;;;;-8.03;76.30;98455.53;5013043;28;20427;-78
2022/01/03 00:52:36;;;;;;;;;;;;;;;-8.04;76.79;98449.66;5012918;28;20477;-79
2022/01/03 00:55:03;;;;;;;;;;;;;;;-8.05;76.30;98449.59;5013139;28;20295;-78
2022/01/03 00:57:34;;;;;;;;;;;;;;;-8.07;76.05;98441.94;5011868;28;19921;-80
2022/01/03 01:00:02;;;;;;;;;;;;;;;-7.99;76.97;98442.31;5012504;28;20384;-78
2022/01/03 01:02:29;;;;;;;;;;;;;;;-7.92;76.96;98424.22;5011073;28;19913;-78
2022/01/03 01:04:55;;;;;;;;;;;;;;;-7.87;76.08;98427.81;5011128;28;19923;-78
2022/01/03 01:07:22;;;;;;;;;;;;;;;-7.82;76.77;98420.50;4994838;28;20004;-77
2022/01/03 01:09:51;;;;;;;;;;;;;;;-7.76;76.67;98411.56;5011192;28;19917;-77
2022/01/03 01:12:17;;;;;;;;;;;;;;;-7.79;75.74;98415.59;5011210;28;20388;-78
2022/01/03 01:14:42;;;;;;;;;;;;;;;-7.86;76.87;98409.41;5011091;28;20028;-78
2022/01/03 01:17:08;;;;;;;;;;;;;;;-7.96;76.12;98409.75;5010949;28;20016;-78
2022/01/03 01:19:33;;;;;;;;;;;;;;;-7.97;77.11;98393.81;5011226;28;19928;-78
2022/01/03 01:21:59;;;;;;;;;;;;;;;-7.87;76.34;98407.69;4994660;28;19921;-77
2022/01/03 01:24:32;;;;;;;;;;;;;;;-7.84;77.24;98387.69;5012969;28;20066;-77
2022/01/03 01:29:42;;;;;;;;;;;;;;;-7.75;76.18;98373.00;5016183;28;19921;-77
2022/01/03 01:32:12;;;;;;;;;;;;;;;-7.74;76.46;98374.75;5014289;28;19913;-78
2022/01/03 01:34:39;;;;;;;;;;;;;;;-7.64;76.56;98362.59;4998371;28;19924;-77
2022/01/03 01:37:05;;;;;;;;;;;;;;;-7.59;76.26;98356.97;4998242;28;19917;-77
2022/01/03 01:39:35;;;;;;;;;;;;;;;-7.58;75.31;98350.28;5014270;28;19928;-77
2022/01/03 01:42:02;;;;;;;;;;;;;;;-7.54;76.36;98352.16;5031193;28;20300;-77
2022/01/03 01:44:31;;;;;;;;;;;;;;;-7.49;75.42;98358.25;4998221;28;19940;-77
2022/01/03 01:46:57;;;;;;;;;;;;;;;-7.56;76.10;98349.56;5014505;28;20420;-77
2022/01/03 01:49:23;;;;;;;;;;;;;;;-7.65;74.75;98335.66;5014367;28;19925;-77
2022/01/03 01:51:57;;;;;;;;;;;;;;;-7.78;75.08;98330.09;4998251;28;20390;-77
2022/01/03 01:54:28;;;;;;;;;;;;;;;-7.84;75.68;98327.25;4998237;28;20411;-77
2022/01/03 01:57:03;;;;;;;;;;;;;;;-7.88;76.45;98322.88;5014298;28;20372;-77
2022/01/03 01:59:35;;;;;;;;;;;;;;;-7.89;76.56;98320.28;5014267;28;19933;-77
2022/01/03 02:02:05;;;;;;;;;;;;;;;-7.90;77.20;98319.44;4981982;28;19999;-77
2022/01/03 02:04:33;;;;;;;;;;;;;;;-7.80;77.51;98318.22;5013753;28;19921;-77
2022/01/03 02:07:04;;;;;;;;;;;;;;;-7.90;76.66;98304.34;5014144;28;19913;-77
2022/01/03 02:09:33;;;;;;;;;;;;;;;-7.85;76.12;98299.50;4997751;28;20013;-77
2022/01/03 02:11:59;;;;;;;;;;;;;;;-7.75;76.32;98297.47;4998002;28;20296;-77
2022/01/03 02:14:36;;;;;;;;;;;;;;;-7.69;76.07;98292.75;5012829;28;20442;-76
2022/01/03 02:17:05;;;;;;;;;;;;;;;-7.81;76.18;98277.06;5013139;28;19917;-77
2022/01/03 02:19:34;;;;;;;;;;;;;;;-7.77;76.99;98273.03;4997816;28;19917;-77
2022/01/03 02:21:59;;;;;;;;;;;;;;;-7.77;75.82;98256.28;5013933;28;20388;-77
2022/01/03 02:24:33;;;;;;;;;;;;;;;-7.81;75.51;98259.44;4982390;28;19941;-77
2022/01/03 02:27:00;;;;;;;;;;;;;;;-7.72;76.89;98246.41;4997481;28;19917;-77
2022/01/03 02:29:25;;;;;;;;;;;;;;;-7.75;75.39;98239.56;4997437;28;19914;-77
2022/01/03 02:31:51;;;;;;;;;;;;;;;-7.77;75.29;98236.13;5013710;28;19917;-77
2022/01/03 02:34:17;;;;;;;;;;;;;;;-7.84;75.76;98231.63;5014003;28;19936;-77
2022/01/03 02:36:43;;;;;;;;;;;;;;;-7.89;76.75;98223.00;5012402;28;19928;-77
2022/01/03 02:39:08;;;;;;;;;;;;;;;-7.98;76.45;98222.59;4997179;28;19918;-76
2022/01/03 02:41:34;;;;;;;;;;;;;;;-7.99;76.85;98215.84;5013251;28;19970;-77
2022/01/03 02:44:00;;;;;;;;;;;;;;;-7.90;77.00;98212.88;5013469;28;19922;-77
2022/01/03 02:46:27;;;;;;;;;;;;;;;-7.91;76.68;98216.19;5013299;28;20376;-76
2022/01/03 02:48:53;;;;;;;;;;;;;;;-7.90;76.36;98201.16;4997073;28;19983;-77
2022/01/03 02:51:18;;;;;;;;;;;;;;;-7.86;76.71;98212.22;4980971;28;19921;-77
2022/01/03 02:53:44;;;;;;;;;;;;;;;-7.95;75.75;98207.63;5013349;28;20312;-77
2022/01/03 02:56:10;;;;;;;;;;;;;;;-8.02;76.30;98203.09;4996816;28;20300;-77
2022/01/03 02:58:35;;;;;;;;;;;;;;;-8.05;76.68;98182.84;4996780;28;19923;-76
2022/01/03 03:01:01;;;;;;;;;;;;;;;-8.07;76.49;98182.78;5013328;28;20415;-77
2022/01/03 03:03:38;;;;;;;;;;;;;;;-8.04;77.09;98172.00;4996701;28;19917;-77
2022/01/03 03:06:03;;;;;;;;;;;;;;;-8.00;76.45;98168.81;5014441;28;19925;-77
2022/01/03 03:08:32;;;;;;;;;;;;;;;-7.99;75.75;98165.50;4996788;28;19913;-77
2022/01/03 03:10:57;;;;;;;;;;;;;;;-7.89;77.53;98165.09;5012724;28;19940;-77
2022/01/03 03:13:23;;;;;;;;;;;;;;;-7.85;76.94;98154.38;5012958;28;19917;-76
2022/01/03 03:15:49;;;;;;;;;;;;;;;-7.77;75.91;98153.06;4996447;28;19924;-78
2022/01/03 03:18:15;;;;;;;;;;;;;;;-7.76;75.53;98149.75;5012443;28;19917;-77
2022/01/03 03:20:43;;;;;;;;;;;;;;;-7.75;75.23;98141.41;5012964;28;19917;-77
2022/01/03 03:23:09;;;;;;;;;;;;;;;-7.83;75.63;98144.41;5012596;28;19917;-76
2022/01/03 03:25:35;;;;;;;;;;;;;;;-7.80;76.72;98134.44;4995582;28;19917;-76
2022/01/03 03:28:10;;;;;;;;;;;;;;;-7.75;75.25;98135.50;5011976;28;19924;-78
2022/01/03 03:30:37;;;;;;;;;;;;;;;-7.72;75.40;98123.91;5012593;28;20398;-77
2022/01/03 03:33:19;;;;;;;;;;;;;;;-7.73;75.13;98113.78;5012731;28;19917;-77
2022/01/03 03:35:52;;;;;;;;;;;;;;;-7.73;76.85;98112.13;5012370;28;20415;-76
2022/01/03 03:38:20;;;;;;;;;;;;;;;-7.64;76.56;98110.81;4996025;28;19921;-77
2022/01/03 03:40:47;;;;;;;;;;;;;;;-7.67;75.62;98106.47;4996088;28;19917;-77
2022/01/03 03:43:14;;;;;;;;;;;;;;;-7.75;75.89;98110.31;5012182;28;19921;-77
2022/01/03 03:45:42;;;;;;;;;;;;;;;-7.64;75.85;98096.56;4995924;28;20393;-77
2022/01/03 03:48:08;;;;;;;;;;;;;;;-7.60;76.12;98105.97;4996031;28;19960;-77
2022/01/03 03:50:33;;;;;;;;;;;;;;;-7.61;74.61;98096.66;4996055;28;19953;-77
2022/01/03 03:52:59;;;;;;;;;;;;;;;-7.60;74.76;98088.34;5011881;28;19921;-76
2022/01/03 03:55:26;;;;;;;;;;;;;;;-7.62;75.96;98089.06;4995737;28;19920;-77
2022/01/03 03:57:52;;;;;;;;;;;;;;;-7.60;75.96;98084.97;5012007;28;19925;-77
2022/01/03 04:00:17;;;;;;;;;;;;;;;-7.56;75.94;98081.75;4995873;28;19913;-77
2022/01/03 04:02:48;;;;;;;;;;;;;;;-7.54;74.83;98077.66;4995595;28;19924;-77
2022/01/03 04:05:16;;;;;;;;;;;;;;;-7.48;74.78;98075.38;4979764;28;20388;-77
2022/01/03 04:07:42;;;;;;;;;;;;;;;-7.49;76.00;98079.56;4995696;28;20300;-77
2022/01/03 04:10:08;;;;;;;;;;;;;;;-7.50;75.03;98074.47;5012165;28;19917;-76
2022/01/03 04:12:35;;;;;;;;;;;;;;;-7.43;75.35;98078.94;4995969;28;19968;-79
2022/01/03 04:15:02;;;;;;;;;;;;;;;-7.44;74.75;98062.09;5011764;28;19917;-80
2022/01/03 04:17:29;;;;;;;;;;;;;;;-7.39;75.83;98060.63;4995331;28;19917;-78
2022/01/03 04:19:55;;;;;;;;;;;;;;;-7.40;74.43;98048.84;5011740;28;20402;-78
2022/01/03 04:22:20;;;;;;;;;;;;;;;-7.42;75.60;98050.44;4995716;28;20008;-79
2022/01/03 04:24:46;;;;;;;;;;;;;;;-7.40;74.54;98046.31;5012807;28;20394;-79
2022/01/03 04:27:11;;;;;;;;;;;;;;;-7.32;75.18;98047.50;4995669;28;19913;-77
2022/01/03 04:29:38;;;;;;;;;;;;;;;-7.32;74.54;98037.41;4995613;28;19967;-77
2022/01/03 04:32:03;;;;;;;;;;;;;;;-7.32;75.05;98032.38;4995303;28;20401;-77
2022/01/03 04:34:29;;;;;;;;;;;;;;;-7.33;75.52;98020.59;5013059;28;19918;-77
2022/01/03 04:36:55;;;;;;;;;;;;;;;-7.36;75.94;98022.13;5012788;28;19921;-77
2022/01/03 04:39:20;;;;;;;;;;;;;;;-7.34;74.93;98010.44;5011234;28;20019;-77
2022/01/03 04:41:46;;;;;;;;;;;;;;;-7.31;75.40;98005.53;5011342;28;20373;-77
2022/01/03 04:44:11;;;;;;;;;;;;;;;-7.36;76.02;98005.34;4994762;28;19917;-77
2022/01/03 04:46:37;;;;;;;;;;;;;;;-7.33;76.39;97994.50;5012718;28;19913;-77
2022/01/03 04:49:03;;;;;;;;;;;;;;;-7.29;76.37;97996.34;5011658;28;19972;-77
2022/01/03 04:51:28;;;;;;;;;;;;;;;-7.38;75.51;97994.34;4995054;28;19913;-78
2022/01/03 04:53:54;;;;;;;;;;;;;;;-7.35;75.32;97986.91;4995158;28;20347;-77
2022/01/03 04:56:20;;;;;;;;;;;;;;;-7.38;75.97;97981.75;4994948;28;19914;-77
2022/01/03 04:58:46;;;;;;;;;;;;;;;-7.29;76.29;97971.16;4995990;28;19975;-77
2022/01/03 05:01:12;;;;;;;;;;;;;;;-7.27;75.49;97962.88;4999192;28;19917;-78
2022/01/03 05:03:37;;;;;;;;;;;;;;;-7.26;75.18;97956.19;5015276;28;19924;-78
2022/01/03 05:06:03;;;;;;;;;;;;;;;-7.26;75.21;97953.66;4999001;28;19917;-77
2022/01/03 05:08:29;;;;;;;;;;;;;;;-7.20;76.36;97944.66;4998937;28;19968;-78
2022/01/03 05:10:55;;;;;;;;;;;;;;;-7.19;76.34;97938.84;5015390;28;19936;-77
2022/01/03 05:13:21;;;;;;;;;;;;;;;-7.13;76.02;97942.38;5015257;28;19918;-77
2022/01/03 05:15:46;;;;;;;;;;;;;;;-7.10;75.72;97937.44;5016571;28;19921;-77
2022/01/03 05:18:12;;;;;;;;;;;;;;;-7.14;76.04;97930.59;4998702;28;19921;-77
2022/01/03 05:20:37;;;;;;;;;;;;;;;-7.09;76.12;97921.53;4998643;28;19920;-77
2022/01/03 05:23:04;;;;;;;;;;;;;;;-7.07;75.69;97914.88;5014835;28;19928;-78
2022/01/03 05:25:29;;;;;;;;;;;;;;;-7.11;75.61;97915.56;4998663;28;19913;-77
2022/01/03 05:27:55;;;;;;;;;;;;;;;-7.14;75.51;97910.44;4998996;28;20387;-77
2022/01/03 05:30:21;;;;;;;;;;;;;;;-7.07;76.30;97895.59;4998619;28;19913;-77
2022/01/03 05:32:46;;;;;;;;;;;;;;;-7.11;75.87;97888.72;5015192;28;19917;-79
2022/01/03 05:35:12;;;;;;;;;;;;;;;-7.12;76.10;97888.66;5014620;28;19967;-78
2022/01/03 05:37:38;;;;;;;;;;;;;;;-7.14;76.20;97885.25;5014989;28;19921;-78
2022/01/03 05:40:04;;;;;;;;;;;;;;;-7.12;76.34;97873.53;4998488;28;19924;-79
2022/01/03 05:42:31;;;;;;;;;;;;;;;-7.11;76.94;97868.56;4998918;28;19968;-77
2022/01/03 05:44:57;;;;;;;;;;;;;;;-7.10;77.28;97874.44;4998327;28;19921;-78
2022/01/03 05:47:23;;;;;;;;;;;;;;;-7.06;76.21;97869.56;5014562;28;20303;-77
2022/01/03 05:49:48;;;;;;;;;;;;;;;-7.03;77.09;97862.13;4998461;28;19913;-77
2022/01/03 05:52:14;;;;;;;;;;;;;;;-7.03;76.53;97854.56;4998485;28;20376;-77
2022/01/03 05:54:40;;;;;;;;;;;;;;;-7.09;77.40;97848.47;4998119;28;19941;-77
2022/01/03 05:57:05;;;;;;;;;;;;;;;-7.06;77.38;97843.50;5014233;28;19924;-78
2022/01/03 05:59:31;;;;;;;;;;;;;;;-7.06;77.33;97843.50;4998404;28;20373;-77
2022/01/03 06:01:57;;;;;;;;;;;;;;;-7.18;76.32;97839.78;4997985;28;19917;-77
2022/01/03 06:04:25;;;;;;;;;;;;;;;-7.14;77.18;97829.81;5015860;28;19917;-78
2022/01/03 06:06:53;;;;;;;;;;;;;;;-7.14;77.29;97825.63;5015616;28;20281;-78
2022/01/03 06:09:22;;;;;;;;;;;;;;;-7.13;77.01;97827.34;5013687;28;19913;-78
2022/01/03 06:11:50;;;;;;;;;;;;;;;-7.09;78.27;97818.22;5014249;28;19924;-79
2022/01/03 06:14:16;;;;;;;;;;;;;;;-7.05;77.48;97817.53;5030881;28;20364;-77
2022/01/03 06:16:43;;;;;;;;;;;;;;;-7.07;77.86;97816.59;4998087;28;19917;-77
2022/01/03 06:19:09;;;;;;;;;;;;;;;-7.05;77.38;97805.78;4997904;28;19917;-78
2022/01/03 06:21:40;;;;;;;;;;;;;;;-7.10;77.46;97806.41;4997617;28;20388;-77
2022/01/03 06:24:07;;;;;;;;;;;;;;;-7.08;78.22;97795.59;5029380;28;19927;-77
2022/01/03 06:26:33;;;;;;;;;;;;;;;-7.05;77.32;97800.75;4997569;28;19937;-77
2022/01/03 06:29:00;;;;;;;;;;;;;;;-7.08;77.05;97797.25;5013805;28;19917;-77
2022/01/03 06:31:26;;;;;;;;;;;;;;;-7.05;77.47;97785.63;4997857;28;19922;-78
2022/01/03 06:33:51;;;;;;;;;;;;;;;-7.20;76.84;97785.94;5013573;28;19918;-78
2022/01/03 06:36:17;;;;;;;;;;;;;;;-7.09;78.07;97791.38;4997242;28;20004;-78
2022/01/03 06:38:43;;;;;;;;;;;;;;;-7.03;78.31;97793.22;5013837;28;19933;-78
2022/01/03 06:41:09;;;;;;;;;;;;;;;-6.97;78.89;97778.31;4997384;28;20372;-77
2022/01/03 06:43:35;;;;;;;;;;;;;;;-6.97;78.23;97783.34;5013981;28;19921;-79
2022/01/03 06:46:03;;;;;;;;;;;;;;;-6.95;78.18;97781.75;5013682;28;19921;-78
2022/01/03 06:48:28;;;;;;;;;;;;;;;-6.97;76.82;97778.31;5013474;28;20410;-78
2022/01/03 06:50:54;;;;;;;;;;;;;;;-6.94;77.47;97784.31;4997215;28;19913;-79
2022/01/03 06:53:19;;;;;;;;;;;;;;;-6.87;78.65;97772.81;5013441;28;19917;-79
2022/01/03 06:55:45;;;;;;;;;;;;;;;-6.92;77.84;97757.53;4997003;28;19913;-78
2022/01/03 06:58:10;;;;;;;;;;;;;;;-6.85;78.75;97752.69;4997364;28;20326;-78
2022/01/03 07:00:36;;;;;;;;;;;;;;;-6.80;78.50;97752.00;4997949;28;19924;-81
2022/01/03 07:03:02;;;;;;;;;;;;;;;-6.79;78.43;97746.16;4996987;28;19917;-77
2022/01/03 07:05:28;;;;;;;;;;;;;;;-6.81;78.48;97737.69;4997523;28;20280;-76
2022/01/03 07:07:53;;;;;;;;;;;;;;;-6.75;78.32;97735.38;5013408;28;19967;-78
2022/01/03 07:10:19;;;;;;;;;;;;;;;-6.76;77.95;97723.56;5013503;28;19959;-77
2022/01/03 07:12:45;;;;;;;;;;;;;;;-6.83;77.98;97719.13;4996820;28;19917;-79
2022/01/03 07:20:39;;;;;;;;;;;;;;;-6.81;79.45;97714.16;5013755;28;19924;-77
2022/01/03 07:23:04;;;;;;;;;;;;;;;-6.69;79.51;97715.41;5013631;28;20409;-78
2022/01/03 07:25:30;;;;;;;;;;;;;;;-6.73;78.62;97713.59;5013226;28;19924;-78
2022/01/03 07:27:55;;;;;;;;;;;;;;;-6.67;78.40;97708.75;5013022;28;19913;-77
2022/01/03 07:30:21;;;;;;;;;;;;;;;-6.65;78.93;97697.03;5013232;28;19940;-77
2022/01/03 07:32:46;;;;;;;;;;;;;;;-6.61;79.35;97682.84;5012967;28;20011;-76
2022/01/03 07:35:15;;;;;;;;;;;;;;;-6.66;79.04;97689.44;4996873;28;20029;-77
2022/01/03 07:37:41;;;;;;;;;;;;;;;-6.57;79.32;97679.63;5012405;28;19918;-77
2022/01/03 07:40:07;;;;;;;;;;;;;;;-6.50;79.28;97670.59;5012471;28;19924;-77
2022/01/03 07:42:32;;;;;;;;;;;;;;;-6.59;78.53;97670.31;4996665;28;20441;-77
2022/01/03 07:45:00;;;;;;;;;;;;;;;-6.55;78.33;97662.00;5012750;28;19963;-82
2022/01/03 07:47:25;;;;;;;;;;;;;;;-6.45;78.21;97664.03;4996591;28;20368;-79
2022/01/03 07:49:51;;;;;;;;;;;;;;;-6.44;77.64;97656.50;5013909;28;19963;-77
2022/01/03 07:52:16;;;;;;;;;;;;;;;-6.43;79.14;97658.19;5013988;28;19925;-78
2022/01/03 07:54:42;;;;;;;;;;;;;;;-6.45;78.45;97651.41;5013620;28;19917;-78
2022/01/03 07:57:07;;;;;;;;;;;;;;;-6.36;78.15;97638.22;5013543;28;20448;-78
2022/01/03 07:59:33;;;;;;;;;;;;;;;-6.37;77.97;97636.50;5013781;28;20285;-79
2022/01/03 08:01:59;;;;;;;;;;;;;;;-6.28;78.62;97631.72;4979869;28;20300;-79
2022/01/03 08:04:25;;;;;;;;;;;;;;;-6.25;78.21;97631.81;5012372;28;19918;-77
2022/01/03 08:06:51;;;;;;;;;;;;;;;-6.18;78.23;97623.63;5012358;28;19921;-78
2022/01/03 08:09:16;;;;;;;;;;;;;;;-6.21;77.82;97626.91;5012566;28;19917;-78
2022/01/03 08:11:42;;;;;;;;;;;;;;;-6.10;77.91;97626.34;4996322;28;19936;-77
2022/01/03 08:14:07;;;;;;;;;;;;;;;-6.08;76.77;97632.31;5013805;28;19917;-77
2022/01/03 08:16:32;;;;;;;;;;;;;;;-6.03;76.73;97630.75;5012464;28;20008;-79
2022/01/03 08:18:58;;;;;;;;;;;;;;;-6.13;76.50;97626.28;5012455;28;19921;-78
2022/01/03 08:21:23;;;;;;;;;;;;;;;-6.13;76.99;97614.50;5012509;28;19913;-77
2022/01/03 08:23:49;;;;;;;;;;;;;;;-6.05;76.64;97604.59;5012365;28;19921;-79
2022/01/03 08:26:15;;;;;;;;;;;;;;;-6.00;76.65;97592.97;5012308;28;19913;-79
2022/01/03 08:28:40;;;;;;;;;;;;;;;-5.99;76.71;97584.59;5012115;28;19924;-78
2022/01/03 08:31:05;;;;;;;;;;;;;;;-6.18;75.91;97584.09;5013356;28;19921;-76
2022/01/03 08:33:31;;;;;;;;;;;;;;;-6.08;77.49;97575.09;5012231;28;19917;-77
2022/01/03 08:35:57;;;;;;;;;;;;;;;-6.00;77.23;97570.25;5012185;28;19913;-79
2022/01/03 08:38:23;;;;;;;;;;;;;;;-5.99;76.62;97562.75;5012011;28;20338;-80
2022/01/03 08:40:48;;;;;;;;;;;;;;;-5.91;76.71;97565.41;5011879;28;19917;-79
2022/01/03 08:43:14;;;;;;;;;;;;;;;-5.86;77.08;97551.25;5013452;28;19921;-79
2022/01/03 08:45:39;;;;;;;;;;;;;;;-5.81;76.24;97548.88;5012288;28;19917;-82
2022/01/03 08:48:05;;;;;;;;;;;;;;;-5.76;76.52;97554.88;5013486;28;19917;-78
2022/01/03 08:50:30;;;;;;;;;;;;;;;-5.71;75.86;97561.75;4995617;28;19913;-80
2022/01/03 08:52:56;;;;;;;;;;;;;;;-5.67;75.22;97553.44;5012011;28;19949;-77
2022/01/03 08:55:21;;;;;;;;;;;;;;;-5.56;75.89;97541.06;4995263;28;19935;-78
2022/01/03 08:57:51;;;;;;;;;;;;;;;-5.53;75.56;97532.72;5011888;28;19928;-79
2022/01/03 09:00:17;;;;;;;;;;;;;;;-5.49;74.87;97529.47;4995370;28;20411;-78
2022/01/03 09:02:42;;;;;;;;;;;;;;;-5.37;75.28;97532.28;5011745;28;19945;-78
2022/01/03 09:05:08;;;;;;;;;;;;;;;-5.42;74.49;97528.78;4979102;28;19925;-78
2022/01/03 09:07:33;;;;;;;;;;;;;;;-5.35;74.90;97523.06;5012807;28;19914;-78
2022/01/03 09:09:59;;;;;;;;;;;;;;;-5.21;75.10;97519.19;5011616;28;20019;-79
2022/01/03 09:12:24;;;;;;;;;;;;;;;-5.13;74.20;97506.75;4995197;28;19920;-81
2022/01/03 09:14:50;;;;;;;;;;;;;;;-5.15;74.09;97514.28;5028232;28;19917;-77
2022/01/03 09:17:15;;;;;;;;;;;;;;;-4.97;74.61;97507.94;5012724;28;19913;-79
2022/01/03 09:19:41;;;;;;;;;;;;;;;-4.91;73.43;97515.63;5013106;28;19921;-78
2022/01/03 09:22:15;;;;;;;;;;;;;;;-4.92;73.50;97516.47;5012994;28;20277;-77
2022/01/03 09:30:16;;;;;;;;;;;;;;;-4.98;73.26;97486.00;5012839;28;19917;-77
2022/01/03 09:32:42;;;;;;;;;;;;;;;-4.95;73.14;97478.47;5012785;28;19913;-78
2022/01/03 09:35:08;;;;;;;;;;;;;;;-4.94;73.68;97482.72;4995158;28;19991;-81
2022/01/03 09:37:34;;;;;;;;;;;;;;;-5.02;73.53;97481.69;5011696;28;19914;-80
2022/01/03 09:40:00;;;;;;;;;;;;;;;-4.99;74.08;97477.56;4994811;28;19928;-78
2022/01/03 09:42:27;;;;;;;;;;;;;;;-5.03;74.33;97477.47;5011485;28;20407;-78
2022/01/03 09:44:53;;;;;;;;;;;;;;;-5.08;74.11;97474.84;5012270;28;19918;-78
2022/01/03 09:47:19;;;;;;;;;;;;;;;-5.18;73.86;97463.66;4999281;28;20372;-78
2022/01/03 09:49:44;;;;;;;;;;;;;;;-5.22;74.56;97466.09;5016273;28;20019;-78
2022/01/03 09:52:10;;;;;;;;;;;;;;;-5.29;74.34;97460.03;5015165;28;19956;-77
2022/01/03 09:54:35;;;;;;;;;;;;;;;-5.33;74.76;97455.72;5014982;28;19917;-79
2022/01/03 09:57:01;;;;;;;;;;;;;;;-5.34;74.53;97450.66;5016229;28;19924;-78
2022/01/03 09:59:27;;;;;;;;;;;;;;;-5.29;74.96;97452.44;5015018;28;19921;-78
2022/01/03 10:01:53;;;;;;;;;;;;;;;-5.34;74.58;97446.44;5016069;28;19917;-77
2022/01/03 10:04:18;;;;;;;;;;;;;;;-5.42;74.73;97442.88;5014862;28;19917;-79
2022/01/03 10:06:44;;;;;;;;;;;;;;;-5.45;74.71;97432.69;5015899;28;20281;-79
2022/01/03 10:09:09;;;;;;;;;;;;;;;-5.38;75.31;97432.03;5015863;28;20384;-78
2022/01/03 10:11:34;;;;;;;;;;;;;;;-5.34;75.13;97431.28;5014518;28;19920;-77
2022/01/03 10:14:00;;;;;;;;;;;;;;;-5.42;74.80;97431.09;4998181;28;19918;-77
2022/01/03 10:16:28;;;;;;;;;;;;;;;-5.34;75.55;97432.97;5014531;28;19917;-77
2022/01/03 10:18:53;;;;;;;;;;;;;;;-5.35;75.00;97429.59;5015509;28;19929;-78
2022/01/03 10:21:37;;;;;;;;;;;;;;;-5.35;74.95;97432.09;4998739;28;19914;-82
2022/01/03 10:24:03;;;;;;;;;;;;;;;-5.28;75.07;97422.97;5014490;28;19925;-80
2022/01/03 10:26:29;;;;;;;;;;;;;;;-5.22;75.02;97421.44;5015851;28;19988;-83
2022/01/03 10:29:14;;;;;;;;;;;;;;;-5.21;74.79;97418.09;5014686;28;19940;-82
2022/01/03 10:31:40;;;;;;;;;;;;;;;-5.20;74.59;97409.69;5014760;28;19924;-83
2022/01/03 10:34:06;;;;;;;;;;;;;;;-5.17;74.10;97408.91;5014705;28;19913;-77
2022/01/03 10:36:32;;;;;;;;;;;;;;;-5.15;74.57;97407.25;5014486;28;20307;-81
2022/01/03 10:38:59;;;;;;;;;;;;;;;-5.14;74.51;97408.97;4998040;28;20408;-78
2022/01/03 10:41:24;;;;;;;;;;;;;;;-5.19;73.81;97403.81;5013668;28;19922;-78
2022/01/03 10:43:51;;;;;;;;;;;;;;;-5.24;74.11;97397.81;5014085;28;19968;-77
2022/01/03 10:46:18;;;;;;;;;;;;;;;-5.23;74.29;97396.97;4997469;28;19924;-78
2022/01/03 10:48:43;;;;;;;;;;;;;;;-5.21;74.47;97392.81;4997667;28;19997;-77
2022/01/03 10:51:09;;;;;;;;;;;;;;;-5.20;74.14;97393.69;5014004;28;19918;-78
2022/01/03 10:53:38;;;;;;;;;;;;;;;-5.24;74.16;97382.63;5014217;28;19920;-77
2022/01/03 10:56:28;;;;;;;;;;;;;;;-5.22;74.15;97385.22;5029332;28;19921;-77
2022/01/03 10:58:57;;;;;;;;;;;;;;;-5.27;73.70;97369.06;5014336;28;19928;-78
2022/01/03 11:01:23;;;;;;;;;;;;;;;-5.30;74.34;97374.94;5014283;28;19917;-78
2022/01/03 11:03:50;;;;;;;;;;;;;;;-5.29;74.04;97374.13;5014283;28;19923;-83
2022/01/03 11:11:44;;;;;;;;;;;;;;;-5.25;74.00;97364.94;5015051;28;19921;-81
2022/01/03 11:14:09;;;;;;;;;;;;;;;-5.28;74.16;97367.38;5014691;28;19913;-78
2022/01/03 11:16:36;;;;;;;;;;;;;;;-5.16;74.19;97358.38;5014495;28;19928;-82
2022/01/03 11:19:01;;;;;;;;;;;;;;;-5.23;73.93;97353.16;4997157;28;20392;-78
2022/01/03 11:21:28;;;;;;;;;;;;;;;-5.18;73.64;97352.47;5013959;28;19924;-80
2022/01/03 11:24:09;;;;;;;;;;;;;;;-5.18;73.70;97339.81;5013950;28;19924;-84
2022/01/03 11:26:46;;;;;;;;;;;;;;;-5.18;73.41;97344.00;5014875;28;19917;-78
2022/01/03 11:29:12;;;;;;;;;;;;;;;-5.22;73.42;97334.69;5012748;28;20296;-78
2022/01/03 11:31:39;;;;;;;;;;;;;;;-5.22;73.23;97337.19;4996789;28;19913;-78
2022/01/03 11:34:05;;;;;;;;;;;;;;;-5.29;73.44;97333.69;5012945;28;19924;-79
2022/01/03 11:36:31;;;;;;;;;;;;;;;-5.26;73.61;97332.91;5013089;28;19918;-78
2022/01/03 11:38:57;;;;;;;;;;;;;;;-5.21;73.23;97336.38;5013794;28;20443;-78
2022/01/03 11:41:22;;;;;;;;;;;;;;;-5.22;73.46;97329.63;5012756;28;20049;-78
2022/01/03 11:43:49;;;;;;;;;;;;;;;-5.22;73.54;97325.41;5014281;28;20420;-77
2022/01/03 11:46:15;;;;;;;;;;;;;;;-5.28;72.98;97327.78;4997102;28;19913;-78
2022/01/03 11:48:40;;;;;;;;;;;;;;;-5.22;73.64;97330.47;5012802;28;19924;-78
2022/01/03 11:51:07;;;;;;;;;;;;;;;-5.27;72.87;97326.13;5013930;28;20012;-78
2022/01/03 11:53:33;;;;;;;;;;;;;;;-5.27;72.96;97326.13;5012530;28;19917;-77
2022/01/03 11:56:00;;;;;;;;;;;;;;;-5.21;73.19;97326.25;5012563;28;20040;-78
2022/01/03 11:58:44;;;;;;;;;;;;;;;-5.17;72.90;97316.25;4995937;28;19917;-78
2022/01/03 12:03:54;;;;;;;;;;;;;;;-5.25;72.66;97307.66;5013456;28;19964;-78
2022/01/03 12:06:38;;;;;;;;;;;;;;;-5.23;72.88;97312.72;5012326;28;19935;-78
2022/01/03 12:09:06;;;;;;;;;;;;;;;-5.22;72.45;97305.19;4995981;28;19917;-78
2022/01/03 12:11:31;;;;;;;;;;;;;;;-5.25;72.16;97306.81;4996227;28;19913;-78
2022/01/03 12:14:09;;;;;;;;;;;;;;;-5.21;72.44;97299.31;5013727;28;19917;-77
2022/01/03 12:16:50;;;;;;;;;;;;;;;-5.41;71.93;97298.03;5012254;28;19921;-78
2022/01/03 12:19:28;;;;;;;;;;;;;;;-5.37;72.64;97297.28;5013124;28;19924;-78
2022/01/03 12:22:12;;;;;;;;;;;;;;;-5.57;72.22;97298.56;5013538;28;19929;-79
2022/01/03 12:24:39;;;;;;;;;;;;;;;-5.48;73.31;97297.09;5013461;28;19924;-78
2022/01/03 12:27:11;;;;;;;;;;;;;;;-5.55;72.92;97299.44;5011892;28;19914;-78
2022/01/03 12:29:54;;;;;;;;;;;;;;;-5.50;73.01;97296.19;5013476;28;20431;-78
2022/01/03 12:32:23;;;;;;;;;;;;;;;-5.41;73.04;97298.91;5011764;28;19917;-79
2022/01/03 12:35:10;;;;;;;;;;;;;;;-5.39;73.22;97297.28;5013225;28;19920;-78
2022/01/03 12:37:54;;;;;;;;;;;;;;;-5.33;72.91;97296.53;5012218;28;19925;-80
2022/01/03 12:40:25;;;;;;;;;;;;;;;-5.32;73.16;97295.69;5012939;28;19928;-79
2022/01/03 12:42:51;;;;;;;;;;;;;;;-5.36;72.70;97301.50;5012232;28;20012;-77
2022/01/03 12:45:29;;;;;;;;;;;;;;;-5.46;72.90;97292.06;5013384;28;19913;-79
2022/01/03 12:50:35;;;;;;;;;;;;;;;-5.41;73.56;97296.38;5013288;28;19924;-79
2022/01/03 12:53:02;;;;;;;;;;;;;;;-5.35;73.58;97292.28;5013748;28;19913;-79
2022/01/03 12:55:38;;;;;;;;;;;;;;;-5.43;73.00;97289.59;5013069;28;19917;-77
2022/01/03 12:58:19;;;;;;;;;;;;;;;-5.33;73.69;97286.44;5013412;28;19917;-79
2022/01/03 13:00:44;;;;;;;;;;;;;;;-5.36;73.04;97283.81;4995379;28;20388;-79
2022/01/03 13:03:25;;;;;;;;;;;;;;;-5.34;72.99;97289.78;5011634;28;19999;-79
2022/01/03 13:06:06;;;;;;;;;;;;;;;-5.46;72.78;97279.41;5013070;28;19917;-78
2022/01/03 13:08:32;;;;;;;;;;;;;;;-5.46;73.12;97282.78;5013040;28;19917;-77
2022/01/03 13:10:58;;;;;;;;;;;;;;;-5.52;73.07;97291.94;4995502;28;20423;-78
2022/01/03 13:13:27;;;;;;;;;;;;;;;-5.49;73.41;97284.44;5012972;28;19917;-78